sensor_id;sensor_type;location;lat;lon;timestamp;pressure;altitude;pressure_sealevel;temperature
8362;BMP180;4218;48.326;14.304;2022-07-24T00:00:08;98723.00;;;19.40
8362;BMP180;4218;48.326;14.304;2022-07-24T00:02:34;98703.00;;;19.60
8362;BMP180;4218;48.326;14.304;2022-07-24T00:05:00;98722.00;;;19.50
8362;BMP180;4218;48.326;14.304;2022-07-24T00:07:27;98731.00;;;19.40
8362;BMP180;4218;48.326;14.304;2022-07-24T00:09:53;98728.00;;;19.40
8362;BMP180;4218;48.326;14.304;2022-07-24T00:12:18;98730.00;;;19.40
8362;BMP180;4218;48.326;14.304;2022-07-24T00:14:44;98722.00;;;19.20
8362;BMP180;4218;48.326;14.304;2022-07-24T00:17:09;98724.00;;;19.10
8362;BMP180;4218;48.326;14.304;2022-07-24T00:19:34;98723.00;;;19.10
8362;BMP180;4218;48.326;14.304;2022-07-24T00:22:00;98742.00;;;19.20
8362;BMP180;4218;48.326;14.304;2022-07-24T00:24:28;98745.00;;;19.20
8362;BMP180;4218;48.326;14.304;2022-07-24T00:26:53;98736.00;;;19.00
8362;BMP180;4218;48.326;14.304;2022-07-24T00:29:19;98735.00;;;19.00
8362;BMP180;4218;48.326;14.304;2022-07-24T00:31:44;98726.00;;;18.90
8362;BMP180;4218;48.326;14.304;2022-07-24T00:34:10;98732.00;;;18.80
8362;BMP180;4218;48.326;14.304;2022-07-24T00:36:35;98739.00;;;18.80
8362;BMP180;4218;48.326;14.304;2022-07-24T00:39:00;98725.00;;;18.80
8362;BMP180;4218;48.326;14.304;2022-07-24T00:41:26;98725.00;;;18.90
8362;BMP180;4218;48.326;14.304;2022-07-24T00:44:09;98743.00;;;19.20
8362;BMP180;4218;48.326;14.304;2022-07-24T00:46:37;98732.00;;;19.10
8362;BMP180;4218;48.326;14.304;2022-07-24T00:49:07;98726.00;;;18.90
8362;BMP180;4218;48.326;14.304;2022-07-24T00:51:34;98725.00;;;18.80
8362;BMP180;4218;48.326;14.304;2022-07-24T00:54:03;98716.00;;;18.80
8362;BMP180;4218;48.326;14.304;2022-07-24T00:56:29;98727.00;;;18.70
8362;BMP180;4218;48.326;14.304;2022-07-24T00:58:55;98714.00;;;18.80
8362;BMP180;4218;48.326;14.304;2022-07-24T01:01:20;98707.00;;;18.80
8362;BMP180;4218;48.326;14.304;2022-07-24T01:03:46;98729.00;;;19.10
8362;BMP180;4218;48.326;14.304;2022-07-24T01:06:12;98729.00;;;18.90
8362;BMP180;4218;48.326;14.304;2022-07-24T01:08:37;98725.00;;;19.10
8362;BMP180;4218;48.326;14.304;2022-07-24T01:11:04;98726.00;;;19.00
8362;BMP180;4218;48.326;14.304;2022-07-24T01:13:31;98724.00;;;19.00
8362;BMP180;4218;48.326;14.304;2022-07-24T01:15:58;98726.00;;;19.00
8362;BMP180;4218;48.326;14.304;2022-07-24T01:18:23;98713.00;;;19.00
8362;BMP180;4218;48.326;14.304;2022-07-24T01:20:49;98717.00;;;19.10
8362;BMP180;4218;48.326;14.304;2022-07-24T01:23:15;98714.00;;;19.00
8362;BMP180;4218;48.326;14.304;2022-07-24T01:25:41;98728.00;;;19.10
8362;BMP180;4218;48.326;14.304;2022-07-24T01:28:07;98716.00;;;18.90
8362;BMP180;4218;48.326;14.304;2022-07-24T01:30:32;98722.00;;;18.90
8362;BMP180;4218;48.326;14.304;2022-07-24T01:32:58;98716.00;;;18.80
8362;BMP180;4218;48.326;14.304;2022-07-24T01:35:24;98721.00;;;19.10
8362;BMP180;4218;48.326;14.304;2022-07-24T01:37:53;98716.00;;;19.10
8362;BMP180;4218;48.326;14.304;2022-07-24T01:40:20;98718.00;;;18.90
8362;BMP180;4218;48.326;14.304;2022-07-24T01:42:46;98720.00;;;19.00
8362;BMP180;4218;48.326;14.304;2022-07-24T01:45:12;98735.00;;;19.10
8362;BMP180;4218;48.326;14.304;2022-07-24T01:47:37;98708.00;;;18.90
8362;BMP180;4218;48.326;14.304;2022-07-24T01:50:03;98715.00;;;18.80
8362;BMP180;4218;48.326;14.304;2022-07-24T01:52:29;98730.00;;;18.80
8362;BMP180;4218;48.326;14.304;2022-07-24T01:54:54;98729.00;;;18.90
8362;BMP180;4218;48.326;14.304;2022-07-24T01:57:20;98732.00;;;18.50
8362;BMP180;4218;48.326;14.304;2022-07-24T01:59:46;98721.00;;;18.60
8362;BMP180;4218;48.326;14.304;2022-07-24T02:02:11;98715.00;;;18.40
8362;BMP180;4218;48.326;14.304;2022-07-24T02:04:37;98716.00;;;18.40
8362;BMP180;4218;48.326;14.304;2022-07-24T02:07:02;98719.00;;;18.40
8362;BMP180;4218;48.326;14.304;2022-07-24T02:09:28;98705.00;;;18.80
8362;BMP180;4218;48.326;14.304;2022-07-24T02:11:53;98715.00;;;18.40
8362;BMP180;4218;48.326;14.304;2022-07-24T02:14:19;98717.00;;;18.30
8362;BMP180;4218;48.326;14.304;2022-07-24T02:16:45;98715.00;;;18.50
8362;BMP180;4218;48.326;14.304;2022-07-24T02:19:11;98700.00;;;18.20
8362;BMP180;4218;48.326;14.304;2022-07-24T02:21:36;98709.00;;;18.20
8362;BMP180;4218;48.326;14.304;2022-07-24T02:24:02;98710.00;;;18.00
8362;BMP180;4218;48.326;14.304;2022-07-24T02:26:27;98709.00;;;18.00
8362;BMP180;4218;48.326;14.304;2022-07-24T02:28:53;98717.00;;;17.90
8362;BMP180;4218;48.326;14.304;2022-07-24T02:31:18;98700.00;;;17.90
8362;BMP180;4218;48.326;14.304;2022-07-24T02:33:44;98712.00;;;17.90
8362;BMP180;4218;48.326;14.304;2022-07-24T02:36:09;98697.00;;;18.10
8362;BMP180;4218;48.326;14.304;2022-07-24T02:38:35;98693.00;;;17.90
8362;BMP180;4218;48.326;14.304;2022-07-24T02:41:00;98709.00;;;17.90
8362;BMP180;4218;48.326;14.304;2022-07-24T02:43:26;98707.00;;;17.80
8362;BMP180;4218;48.326;14.304;2022-07-24T02:45:51;98706.00;;;17.80
8362;BMP180;4218;48.326;14.304;2022-07-24T02:48:17;98701.00;;;17.80
8362;BMP180;4218;48.326;14.304;2022-07-24T02:50:42;98701.00;;;17.70
8362;BMP180;4218;48.326;14.304;2022-07-24T02:53:07;98711.00;;;17.70
8362;BMP180;4218;48.326;14.304;2022-07-24T02:55:33;98695.00;;;18.00
8362;BMP180;4218;48.326;14.304;2022-07-24T02:57:58;98719.00;;;17.80
8362;BMP180;4218;48.326;14.304;2022-07-24T03:00:24;98725.00;;;17.70
8362;BMP180;4218;48.326;14.304;2022-07-24T03:02:50;98718.00;;;18.10
8362;BMP180;4218;48.326;14.304;2022-07-24T03:05:16;98730.00;;;17.90
8362;BMP180;4218;48.326;14.304;2022-07-24T03:07:41;98730.00;;;17.80
8362;BMP180;4218;48.326;14.304;2022-07-24T03:10:08;98726.00;;;17.70
8362;BMP180;4218;48.326;14.304;2022-07-24T03:12:35;98731.00;;;17.90
8362;BMP180;4218;48.326;14.304;2022-07-24T03:15:00;98726.00;;;18.00
8362;BMP180;4218;48.326;14.304;2022-07-24T03:17:26;98733.00;;;17.90
8362;BMP180;4218;48.326;14.304;2022-07-24T03:19:51;98726.00;;;17.80
8362;BMP180;4218;48.326;14.304;2022-07-24T03:22:17;98722.00;;;17.70
8362;BMP180;4218;48.326;14.304;2022-07-24T03:24:42;98722.00;;;17.60
8362;BMP180;4218;48.326;14.304;2022-07-24T03:27:08;98733.00;;;17.40
8362;BMP180;4218;48.326;14.304;2022-07-24T03:29:33;98720.00;;;17.50
8362;BMP180;4218;48.326;14.304;2022-07-24T03:31:59;98738.00;;;17.40
8362;BMP180;4218;48.326;14.304;2022-07-24T03:34:24;98728.00;;;17.30
8362;BMP180;4218;48.326;14.304;2022-07-24T03:36:50;98728.00;;;17.30
8362;BMP180;4218;48.326;14.304;2022-07-24T03:39:15;98737.00;;;17.30
8362;BMP180;4218;48.326;14.304;2022-07-24T03:41:41;98726.00;;;17.30
8362;BMP180;4218;48.326;14.304;2022-07-24T03:44:06;98728.00;;;17.30
8362;BMP180;4218;48.326;14.304;2022-07-24T03:46:32;98740.00;;;17.30
8362;BMP180;4218;48.326;14.304;2022-07-24T03:48:57;98743.00;;;17.30
8362;BMP180;4218;48.326;14.304;2022-07-24T03:51:23;98746.00;;;17.30
8362;BMP180;4218;48.326;14.304;2022-07-24T03:53:49;98751.00;;;17.40
8362;BMP180;4218;48.326;14.304;2022-07-24T03:56:14;98754.00;;;17.40
8362;BMP180;4218;48.326;14.304;2022-07-24T03:58:40;98760.00;;;17.40
8362;BMP180;4218;48.326;14.304;2022-07-24T04:01:06;98752.00;;;17.50
8362;BMP180;4218;48.326;14.304;2022-07-24T04:03:32;98757.00;;;17.50
8362;BMP180;4218;48.326;14.304;2022-07-24T04:05:58;98764.00;;;17.60
8362;BMP180;4218;48.326;14.304;2022-07-24T04:08:25;98759.00;;;17.60
8362;BMP180;4218;48.326;14.304;2022-07-24T04:10:50;98760.00;;;17.50
8362;BMP180;4218;48.326;14.304;2022-07-24T04:13:25;98773.00;;;17.60
8362;BMP180;4218;48.326;14.304;2022-07-24T04:15:50;98763.00;;;17.60
8362;BMP180;4218;48.326;14.304;2022-07-24T04:18:16;98767.00;;;17.60
8362;BMP180;4218;48.326;14.304;2022-07-24T04:20:41;98770.00;;;17.60
8362;BMP180;4218;48.326;14.304;2022-07-24T04:23:07;98767.00;;;17.60
8362;BMP180;4218;48.326;14.304;2022-07-24T04:25:32;98775.00;;;17.60
8362;BMP180;4218;48.326;14.304;2022-07-24T04:28:00;98777.00;;;17.70
8362;BMP180;4218;48.326;14.304;2022-07-24T04:30:25;98778.00;;;17.70
8362;BMP180;4218;48.326;14.304;2022-07-24T04:32:50;98781.00;;;17.70
8362;BMP180;4218;48.326;14.304;2022-07-24T04:35:16;98791.00;;;17.80
8362;BMP180;4218;48.326;14.304;2022-07-24T04:37:41;98792.00;;;17.90
8362;BMP180;4218;48.326;14.304;2022-07-24T04:40:07;98797.00;;;18.00
8362;BMP180;4218;48.326;14.304;2022-07-24T04:42:33;98793.00;;;18.00
8362;BMP180;4218;48.326;14.304;2022-07-24T04:44:58;98786.00;;;18.00
8362;BMP180;4218;48.326;14.304;2022-07-24T04:47:23;98802.00;;;18.00
8362;BMP180;4218;48.326;14.304;2022-07-24T04:49:49;98792.00;;;18.20
8362;BMP180;4218;48.326;14.304;2022-07-24T04:52:14;98802.00;;;18.30
8362;BMP180;4218;48.326;14.304;2022-07-24T04:54:40;98795.00;;;18.30
8362;BMP180;4218;48.326;14.304;2022-07-24T04:57:05;98812.00;;;18.50
8362;BMP180;4218;48.326;14.304;2022-07-24T04:59:30;98800.00;;;18.70
8362;BMP180;4218;48.326;14.304;2022-07-24T05:01:56;98810.00;;;18.70
8362;BMP180;4218;48.326;14.304;2022-07-24T05:04:22;98799.00;;;19.00
8362;BMP180;4218;48.326;14.304;2022-07-24T05:06:47;98806.00;;;19.20
8362;BMP180;4218;48.326;14.304;2022-07-24T05:09:12;98799.00;;;19.30
8362;BMP180;4218;48.326;14.304;2022-07-24T05:11:39;98808.00;;;19.50
8362;BMP180;4218;48.326;14.304;2022-07-24T05:14:04;98807.00;;;19.70
8362;BMP180;4218;48.326;14.304;2022-07-24T05:16:29;98801.00;;;19.70
8362;BMP180;4218;48.326;14.304;2022-07-24T05:18:55;98792.00;;;19.80
8362;BMP180;4218;48.326;14.304;2022-07-24T05:21:20;98802.00;;;19.80
8362;BMP180;4218;48.326;14.304;2022-07-24T05:23:46;98810.00;;;19.90
8362;BMP180;4218;48.326;14.304;2022-07-24T05:26:11;98823.00;;;20.00
8362;BMP180;4218;48.326;14.304;2022-07-24T05:28:36;98806.00;;;19.70
8362;BMP180;4218;48.326;14.304;2022-07-24T05:31:02;98816.00;;;19.80
8362;BMP180;4218;48.326;14.304;2022-07-24T05:33:27;98824.00;;;19.90
8362;BMP180;4218;48.326;14.304;2022-07-24T05:35:53;98831.00;;;19.90
8362;BMP180;4218;48.326;14.304;2022-07-24T05:38:18;98826.00;;;20.10
8362;BMP180;4218;48.326;14.304;2022-07-24T05:40:44;98827.00;;;20.20
8362;BMP180;4218;48.326;14.304;2022-07-24T05:43:09;98821.00;;;20.20
8362;BMP180;4218;48.326;14.304;2022-07-24T05:45:34;98838.00;;;20.50
8362;BMP180;4218;48.326;14.304;2022-07-24T05:48:00;98829.00;;;20.60
8362;BMP180;4218;48.326;14.304;2022-07-24T05:50:25;98834.00;;;20.70
8362;BMP180;4218;48.326;14.304;2022-07-24T05:52:51;98833.00;;;20.60
8362;BMP180;4218;48.326;14.304;2022-07-24T05:55:16;98843.00;;;20.80
8362;BMP180;4218;48.326;14.304;2022-07-24T05:57:42;98836.00;;;20.80
8362;BMP180;4218;48.326;14.304;2022-07-24T06:00:07;98838.00;;;20.60
8362;BMP180;4218;48.326;14.304;2022-07-24T06:02:34;98842.00;;;20.40
8362;BMP180;4218;48.326;14.304;2022-07-24T06:04:59;98841.00;;;20.30
8362;BMP180;4218;48.326;14.304;2022-07-24T06:07:24;98836.00;;;20.60
8362;BMP180;4218;48.326;14.304;2022-07-24T06:09:50;98831.00;;;20.60
8362;BMP180;4218;48.326;14.304;2022-07-24T06:12:17;98835.00;;;20.50
8362;BMP180;4218;48.326;14.304;2022-07-24T06:14:43;98831.00;;;20.50
8362;BMP180;4218;48.326;14.304;2022-07-24T06:17:08;98834.00;;;20.60
8362;BMP180;4218;48.326;14.304;2022-07-24T06:19:34;98826.00;;;20.90
8362;BMP180;4218;48.326;14.304;2022-07-24T06:21:59;98832.00;;;21.00
8362;BMP180;4218;48.326;14.304;2022-07-24T06:24:25;98823.00;;;21.00
8362;BMP180;4218;48.326;14.304;2022-07-24T06:26:50;98827.00;;;21.50
8362;BMP180;4218;48.326;14.304;2022-07-24T06:29:15;98833.00;;;21.70
8362;BMP180;4218;48.326;14.304;2022-07-24T06:31:41;98837.00;;;21.90
8362;BMP180;4218;48.326;14.304;2022-07-24T06:34:06;98826.00;;;22.10
8362;BMP180;4218;48.326;14.304;2022-07-24T06:36:34;98839.00;;;22.20
8362;BMP180;4218;48.326;14.304;2022-07-24T06:38:59;98834.00;;;22.30
8362;BMP180;4218;48.326;14.304;2022-07-24T06:41:24;98833.00;;;22.00
8362;BMP180;4218;48.326;14.304;2022-07-24T06:43:50;98831.00;;;21.80
8362;BMP180;4218;48.326;14.304;2022-07-24T06:46:15;98822.00;;;22.10
8362;BMP180;4218;48.326;14.304;2022-07-24T06:48:41;98840.00;;;22.30
8362;BMP180;4218;48.326;14.304;2022-07-24T06:51:06;98819.00;;;22.60
8362;BMP180;4218;48.326;14.304;2022-07-24T06:53:32;98831.00;;;22.50
8362;BMP180;4218;48.326;14.304;2022-07-24T06:55:57;98821.00;;;22.80
8362;BMP180;4218;48.326;14.304;2022-07-24T06:58:23;98817.00;;;22.90
8362;BMP180;4218;48.326;14.304;2022-07-24T07:00:48;98825.00;;;23.20
8362;BMP180;4218;48.326;14.304;2022-07-24T07:03:14;98823.00;;;23.20
8362;BMP180;4218;48.326;14.304;2022-07-24T07:05:40;98831.00;;;23.10
8362;BMP180;4218;48.326;14.304;2022-07-24T07:08:05;98814.00;;;22.90
8362;BMP180;4218;48.326;14.304;2022-07-24T07:10:31;98825.00;;;22.90
8362;BMP180;4218;48.326;14.304;2022-07-24T07:12:56;98822.00;;;22.90
8362;BMP180;4218;48.326;14.304;2022-07-24T07:15:22;98826.00;;;23.00
8362;BMP180;4218;48.326;14.304;2022-07-24T07:17:47;98820.00;;;23.50
8362;BMP180;4218;48.326;14.304;2022-07-24T07:20:13;98815.00;;;23.20
8362;BMP180;4218;48.326;14.304;2022-07-24T07:22:39;98824.00;;;23.30
8362;BMP180;4218;48.326;14.304;2022-07-24T07:25:06;98816.00;;;23.60
8362;BMP180;4218;48.326;14.304;2022-07-24T07:27:32;98826.00;;;24.00
8362;BMP180;4218;48.326;14.304;2022-07-24T07:29:58;98832.00;;;24.00
8362;BMP180;4218;48.326;14.304;2022-07-24T07:32:23;98824.00;;;23.90
8362;BMP180;4218;48.326;14.304;2022-07-24T07:34:48;98826.00;;;24.00
8362;BMP180;4218;48.326;14.304;2022-07-24T07:37:14;98838.00;;;23.80
8362;BMP180;4218;48.326;14.304;2022-07-24T07:39:39;98831.00;;;23.80
8362;BMP180;4218;48.326;14.304;2022-07-24T07:42:05;98827.00;;;24.00
8362;BMP180;4218;48.326;14.304;2022-07-24T07:44:30;98827.00;;;24.00
8362;BMP180;4218;48.326;14.304;2022-07-24T07:46:56;98828.00;;;24.10
8362;BMP180;4218;48.326;14.304;2022-07-24T07:49:21;98839.00;;;24.40
8362;BMP180;4218;48.326;14.304;2022-07-24T07:51:47;98841.00;;;24.30
8362;BMP180;4218;48.326;14.304;2022-07-24T07:54:16;98836.00;;;24.30
8362;BMP180;4218;48.326;14.304;2022-07-24T07:56:42;98841.00;;;24.60
8362;BMP180;4218;48.326;14.304;2022-07-24T07:59:07;98840.00;;;24.30
8362;BMP180;4218;48.326;14.304;2022-07-24T08:01:33;98844.00;;;24.40
8362;BMP180;4218;48.326;14.304;2022-07-24T08:03:58;98845.00;;;24.50
8362;BMP180;4218;48.326;14.304;2022-07-24T08:06:25;98842.00;;;24.50
8362;BMP180;4218;48.326;14.304;2022-07-24T08:08:51;98837.00;;;24.60
8362;BMP180;4218;48.326;14.304;2022-07-24T08:11:16;98830.00;;;24.70
8362;BMP180;4218;48.326;14.304;2022-07-24T08:13:42;98833.00;;;24.60
8362;BMP180;4218;48.326;14.304;2022-07-24T08:16:10;98820.00;;;24.70
8362;BMP180;4218;48.326;14.304;2022-07-24T08:18:36;98835.00;;;24.80
8362;BMP180;4218;48.326;14.304;2022-07-24T08:21:02;98838.00;;;25.00
8362;BMP180;4218;48.326;14.304;2022-07-24T08:23:27;98839.00;;;24.90
8362;BMP180;4218;48.326;14.304;2022-07-24T08:25:52;98833.00;;;25.10
8362;BMP180;4218;48.326;14.304;2022-07-24T08:28:18;98833.00;;;25.00
8362;BMP180;4218;48.326;14.304;2022-07-24T08:30:43;98828.00;;;25.20
8362;BMP180;4218;48.326;14.304;2022-07-24T08:33:09;98826.00;;;24.90
8362;BMP180;4218;48.326;14.304;2022-07-24T08:35:36;98831.00;;;25.20
8362;BMP180;4218;48.326;14.304;2022-07-24T08:38:02;98828.00;;;25.30
8362;BMP180;4218;48.326;14.304;2022-07-24T08:40:37;98833.00;;;25.20
8362;BMP180;4218;48.326;14.304;2022-07-24T08:43:05;98838.00;;;25.20
8362;BMP180;4218;48.326;14.304;2022-07-24T08:45:34;98831.00;;;25.30
8362;BMP180;4218;48.326;14.304;2022-07-24T08:48:05;98831.00;;;25.20
8362;BMP180;4218;48.326;14.304;2022-07-24T08:50:33;98840.00;;;25.40
8362;BMP180;4218;48.326;14.304;2022-07-24T08:52:58;98831.00;;;25.30
8362;BMP180;4218;48.326;14.304;2022-07-24T08:55:26;98826.00;;;25.40
8362;BMP180;4218;48.326;14.304;2022-07-24T08:57:52;98841.00;;;25.40
8362;BMP180;4218;48.326;14.304;2022-07-24T09:00:19;98839.00;;;25.60
8362;BMP180;4218;48.326;14.304;2022-07-24T09:02:44;98829.00;;;25.40
8362;BMP180;4218;48.326;14.304;2022-07-24T09:05:11;98835.00;;;25.40
8362;BMP180;4218;48.326;14.304;2022-07-24T09:07:37;98838.00;;;25.60
8362;BMP180;4218;48.326;14.304;2022-07-24T09:10:12;98828.00;;;25.70
8362;BMP180;4218;48.326;14.304;2022-07-24T09:12:40;98837.00;;;25.80
8362;BMP180;4218;48.326;14.304;2022-07-24T09:17:56;98835.00;;;25.70
8362;BMP180;4218;48.326;14.304;2022-07-24T09:20:23;98836.00;;;25.90
8362;BMP180;4218;48.326;14.304;2022-07-24T09:22:49;98822.00;;;26.00
8362;BMP180;4218;48.326;14.304;2022-07-24T09:25:26;98829.00;;;26.10
8362;BMP180;4218;48.326;14.304;2022-07-24T09:30:34;98831.00;;;26.10
8362;BMP180;4218;48.326;14.304;2022-07-24T09:33:04;98832.00;;;26.10
8362;BMP180;4218;48.326;14.304;2022-07-24T09:35:38;98831.00;;;26.10
8362;BMP180;4218;48.326;14.304;2022-07-24T09:38:06;98826.00;;;26.10
8362;BMP180;4218;48.326;14.304;2022-07-24T09:40:35;98820.00;;;26.10
8362;BMP180;4218;48.326;14.304;2022-07-24T09:43:26;98811.00;;;26.20
8362;BMP180;4218;48.326;14.304;2022-07-24T09:45:57;98812.00;;;26.30
8362;BMP180;4218;48.326;14.304;2022-07-24T09:48:48;98810.00;;;26.20
8362;BMP180;4218;48.326;14.304;2022-07-24T09:51:16;98808.00;;;26.50
8362;BMP180;4218;48.326;14.304;2022-07-24T09:53:44;98807.00;;;26.60
8362;BMP180;4218;48.326;14.304;2022-07-24T09:56:12;98814.00;;;26.60
8362;BMP180;4218;48.326;14.304;2022-07-24T09:58:47;98801.00;;;26.70
8362;BMP180;4218;48.326;14.304;2022-07-24T10:01:16;98808.00;;;26.80
8362;BMP180;4218;48.326;14.304;2022-07-24T10:03:43;98801.00;;;26.60
8362;BMP180;4218;48.326;14.304;2022-07-24T10:06:14;98808.00;;;26.80
8362;BMP180;4218;48.326;14.304;2022-07-24T10:08:41;98791.00;;;26.90
8362;BMP180;4218;48.326;14.304;2022-07-24T10:11:08;98786.00;;;27.00
8362;BMP180;4218;48.326;14.304;2022-07-24T10:13:34;98799.00;;;27.10
8362;BMP180;4218;48.326;14.304;2022-07-24T10:26:49;98791.00;;;27.20
8362;BMP180;4218;48.326;14.304;2022-07-24T10:29:22;98781.00;;;27.20
8362;BMP180;4218;48.326;14.304;2022-07-24T10:31:49;98794.00;;;27.60
8362;BMP180;4218;48.326;14.304;2022-07-24T10:37:22;98779.00;;;27.20
8362;BMP180;4218;48.326;14.304;2022-07-24T10:40:02;98771.00;;;27.50
8362;BMP180;4218;48.326;14.304;2022-07-24T10:42:30;98768.00;;;27.70
8362;BMP180;4218;48.326;14.304;2022-07-24T10:45:15;98773.00;;;27.90
8362;BMP180;4218;48.326;14.304;2022-07-24T10:47:42;98772.00;;;27.50
8362;BMP180;4218;48.326;14.304;2022-07-24T10:50:10;98764.00;;;28.10
8362;BMP180;4218;48.326;14.304;2022-07-24T10:52:39;98775.00;;;28.30
8362;BMP180;4218;48.326;14.304;2022-07-24T10:55:23;98767.00;;;28.10
8362;BMP180;4218;48.326;14.304;2022-07-24T11:00:37;98764.00;;;28.00
8362;BMP180;4218;48.326;14.304;2022-07-24T11:03:30;98753.00;;;28.10
8362;BMP180;4218;48.326;14.304;2022-07-24T11:06:11;98756.00;;;28.00
8362;BMP180;4218;48.326;14.304;2022-07-24T11:08:49;98753.00;;;28.40
8362;BMP180;4218;48.326;14.304;2022-07-24T11:11:19;98761.00;;;28.50
8362;BMP180;4218;48.326;14.304;2022-07-24T11:13:47;98751.00;;;28.50
8362;BMP180;4218;48.326;14.304;2022-07-24T11:16:17;98749.00;;;28.40
8362;BMP180;4218;48.326;14.304;2022-07-24T11:21:27;98748.00;;;28.70
8362;BMP180;4218;48.326;14.304;2022-07-24T11:24:29;98729.00;;;28.80
8362;BMP180;4218;48.326;14.304;2022-07-24T11:27:03;98739.00;;;28.90
8362;BMP180;4218;48.326;14.304;2022-07-24T11:29:37;98728.00;;;28.50
8362;BMP180;4218;48.326;14.304;2022-07-24T11:32:06;98734.00;;;29.00
8362;BMP180;4218;48.326;14.304;2022-07-24T11:34:34;98730.00;;;29.20
8362;BMP180;4218;48.326;14.304;2022-07-24T11:37:00;98728.00;;;29.40
8362;BMP180;4218;48.326;14.304;2022-07-24T11:39:28;98727.00;;;29.60
8362;BMP180;4218;48.326;14.304;2022-07-24T11:41:58;98725.00;;;29.20
8362;BMP180;4218;48.326;14.304;2022-07-24T11:44:28;98714.00;;;29.20
8362;BMP180;4218;48.326;14.304;2022-07-24T11:46:55;98718.00;;;29.10
8362;BMP180;4218;48.326;14.304;2022-07-24T11:49:23;98726.00;;;29.20
8362;BMP180;4218;48.326;14.304;2022-07-24T11:51:50;98727.00;;;29.10
8362;BMP180;4218;48.326;14.304;2022-07-24T11:54:24;98721.00;;;29.30
8362;BMP180;4218;48.326;14.304;2022-07-24T11:56:53;98718.00;;;29.60
8362;BMP180;4218;48.326;14.304;2022-07-24T11:59:23;98719.00;;;29.40
8362;BMP180;4218;48.326;14.304;2022-07-24T12:01:49;98715.00;;;29.70
8362;BMP180;4218;48.326;14.304;2022-07-24T12:04:20;98708.00;;;29.80
8362;BMP180;4218;48.326;14.304;2022-07-24T12:06:49;98709.00;;;28.90
8362;BMP180;4218;48.326;14.304;2022-07-24T12:09:15;98706.00;;;29.00
8362;BMP180;4218;48.326;14.304;2022-07-24T12:11:42;98702.00;;;29.40
8362;BMP180;4218;48.326;14.304;2022-07-24T12:14:18;98702.00;;;29.60
8362;BMP180;4218;48.326;14.304;2022-07-24T12:16:51;98691.00;;;29.60
8362;BMP180;4218;48.326;14.304;2022-07-24T12:19:35;98703.00;;;29.60
8362;BMP180;4218;48.326;14.304;2022-07-24T12:22:05;98699.00;;;29.60
8362;BMP180;4218;48.326;14.304;2022-07-24T12:24:34;98679.00;;;29.60
8362;BMP180;4218;48.326;14.304;2022-07-24T12:27:01;98680.00;;;29.50
8362;BMP180;4218;48.326;14.304;2022-07-24T12:29:27;98681.00;;;29.90
8362;BMP180;4218;48.326;14.304;2022-07-24T12:32:21;98693.00;;;30.20
8362;BMP180;4218;48.326;14.304;2022-07-24T12:34:50;98684.00;;;29.90
8362;BMP180;4218;48.326;14.304;2022-07-24T12:37:19;98684.00;;;29.30
8362;BMP180;4218;48.326;14.304;2022-07-24T12:39:53;98689.00;;;29.30
8362;BMP180;4218;48.326;14.304;2022-07-24T12:42:40;98684.00;;;28.70
8362;BMP180;4218;48.326;14.304;2022-07-24T12:45:14;98681.00;;;29.20
8362;BMP180;4218;48.326;14.304;2022-07-24T12:48:10;98683.00;;;29.70
8362;BMP180;4218;48.326;14.304;2022-07-24T12:50:37;98671.00;;;29.90
8362;BMP180;4218;48.326;14.304;2022-07-24T12:53:06;98672.00;;;30.20
8362;BMP180;4218;48.326;14.304;2022-07-24T12:55:34;98672.00;;;30.30
8362;BMP180;4218;48.326;14.304;2022-07-24T12:58:04;98675.00;;;29.80
8362;BMP180;4218;48.326;14.304;2022-07-24T13:00:32;98662.00;;;29.90
8362;BMP180;4218;48.326;14.304;2022-07-24T13:03:00;98659.00;;;30.20
8362;BMP180;4218;48.326;14.304;2022-07-24T13:05:39;98665.00;;;30.20
8362;BMP180;4218;48.326;14.304;2022-07-24T13:08:13;98672.00;;;30.20
8362;BMP180;4218;48.326;14.304;2022-07-24T13:10:40;98661.00;;;30.30
8362;BMP180;4218;48.326;14.304;2022-07-24T13:13:07;98666.00;;;30.30
8362;BMP180;4218;48.326;14.304;2022-07-24T13:15:35;98660.00;;;29.60
8362;BMP180;4218;48.326;14.304;2022-07-24T13:18:08;98655.00;;;29.00
8362;BMP180;4218;48.326;14.304;2022-07-24T13:20:34;98650.00;;;29.50
8362;BMP180;4218;48.326;14.304;2022-07-24T13:23:05;98668.00;;;28.90
8362;BMP180;4218;48.326;14.304;2022-07-24T13:25:32;98656.00;;;29.20
8362;BMP180;4218;48.326;14.304;2022-07-24T13:28:01;98650.00;;;29.60
8362;BMP180;4218;48.326;14.304;2022-07-24T13:30:36;98668.00;;;29.30
8362;BMP180;4218;48.326;14.304;2022-07-24T13:33:12;98645.00;;;28.80
8362;BMP180;4218;48.326;14.304;2022-07-24T13:35:38;98642.00;;;28.60
8362;BMP180;4218;48.326;14.304;2022-07-24T13:38:07;98641.00;;;28.80
8362;BMP180;4218;48.326;14.304;2022-07-24T13:40:47;98639.00;;;29.30
8362;BMP180;4218;48.326;14.304;2022-07-24T13:43:14;98653.00;;;29.20
8362;BMP180;4218;48.326;14.304;2022-07-24T13:45:43;98637.00;;;29.20
8362;BMP180;4218;48.326;14.304;2022-07-24T13:48:14;98640.00;;;29.20
8362;BMP180;4218;48.326;14.304;2022-07-24T13:50:46;98632.00;;;29.60
8362;BMP180;4218;48.326;14.304;2022-07-24T13:53:16;98632.00;;;29.70
8362;BMP180;4218;48.326;14.304;2022-07-24T13:55:49;98622.00;;;29.50
8362;BMP180;4218;48.326;14.304;2022-07-24T13:58:17;98624.00;;;29.20
8362;BMP180;4218;48.326;14.304;2022-07-24T14:00:49;98613.00;;;29.20
8362;BMP180;4218;48.326;14.304;2022-07-24T14:03:35;98608.00;;;29.10
8362;BMP180;4218;48.326;14.304;2022-07-24T14:06:09;98600.00;;;29.00
8362;BMP180;4218;48.326;14.304;2022-07-24T14:08:45;98611.00;;;29.20
8362;BMP180;4218;48.326;14.304;2022-07-24T14:11:24;98603.00;;;29.60
8362;BMP180;4218;48.326;14.304;2022-07-24T14:14:00;98601.00;;;29.50
8362;BMP180;4218;48.326;14.304;2022-07-24T14:16:41;98589.00;;;29.60
8362;BMP180;4218;48.326;14.304;2022-07-24T14:19:11;98591.00;;;29.30
8362;BMP180;4218;48.326;14.304;2022-07-24T14:21:41;98584.00;;;29.20
8362;BMP180;4218;48.326;14.304;2022-07-24T14:24:12;98580.00;;;29.30
8362;BMP180;4218;48.326;14.304;2022-07-24T14:26:39;98587.00;;;29.50
8362;BMP180;4218;48.326;14.304;2022-07-24T14:29:07;98594.00;;;29.50
8362;BMP180;4218;48.326;14.304;2022-07-24T14:31:37;98585.00;;;29.60
8362;BMP180;4218;48.326;14.304;2022-07-24T14:34:03;98573.00;;;29.70
8362;BMP180;4218;48.326;14.304;2022-07-24T14:36:33;98566.00;;;29.70
8362;BMP180;4218;48.326;14.304;2022-07-24T14:39:00;98572.00;;;29.90
8362;BMP180;4218;48.326;14.304;2022-07-24T14:41:44;98568.00;;;29.80
8362;BMP180;4218;48.326;14.304;2022-07-24T14:44:26;98568.00;;;29.80
8362;BMP180;4218;48.326;14.304;2022-07-24T14:47:07;98568.00;;;29.70
8362;BMP180;4218;48.326;14.304;2022-07-24T14:49:41;98569.00;;;29.70